sensor_id;sensor_type;location;lat;lon;timestamp;pressure;altitude;pressure_sealevel;temperature;humidity
76753;BME280;65687;51.308;16.916;2022-12-16T00:03:28;99196.08;;;-4.23;81.31
76753;BME280;65687;51.308;16.916;2022-12-16T00:08:37;99187.14;;;-4.28;81.23
76753;BME280;65687;51.308;16.916;2022-12-16T00:13:40;99184.84;;;-4.31;81.37
76753;BME280;65687;51.308;16.916;2022-12-16T00:18:42;99179.55;;;-4.32;81.47
76753;BME280;65687;51.308;16.916;2022-12-16T00:23:45;99175.52;;;-4.37;81.59
76753;BME280;65687;51.308;16.916;2022-12-16T00:28:47;99182.31;;;-4.33;81.67
76753;BME280;65687;51.308;16.916;2022-12-16T00:33:49;99184.98;;;-4.19;81.36
76753;BME280;65687;51.308;16.916;2022-12-16T00:38:53;99178.70;;;-4.16;81.00
76753;BME280;65687;51.308;16.916;2022-12-16T00:43:55;99177.38;;;-4.19;80.92
76753;BME280;65687;51.308;16.916;2022-12-16T00:48:57;99177.67;;;-4.22;81.07
76753;BME280;65687;51.308;16.916;2022-12-16T00:53:58;99167.11;;;-4.31;80.91
76753;BME280;65687;51.308;16.916;2022-12-16T00:59:00;99150.30;;;-4.39;81.39
76753;BME280;65687;51.308;16.916;2022-12-16T01:04:02;99142.85;;;-4.43;81.30
76753;BME280;65687;51.308;16.916;2022-12-16T01:09:04;99140.92;;;-4.48;81.62
76753;BME280;65687;51.308;16.916;2022-12-16T01:14:06;99138.66;;;-4.47;81.55
76753;BME280;65687;51.308;16.916;2022-12-16T01:19:08;99133.17;;;-4.37;81.66
76753;BME280;65687;51.308;16.916;2022-12-16T01:24:10;99129.89;;;-4.24;81.48
76753;BME280;65687;51.308;16.916;2022-12-16T01:29:13;99134.57;;;-4.10;81.07
76753;BME280;65687;51.308;16.916;2022-12-16T01:34:14;99138.87;;;-4.02;80.67
76753;BME280;65687;51.308;16.916;2022-12-16T01:39:17;99147.83;;;-3.99;80.53
76753;BME280;65687;51.308;16.916;2022-12-16T01:44:23;99143.99;;;-4.02;80.51
76753;BME280;65687;51.308;16.916;2022-12-16T01:54:36;99128.45;;;-4.14;80.78
76753;BME280;65687;51.308;16.916;2022-12-16T01:59:42;99125.16;;;-4.25;80.80
76753;BME280;65687;51.308;16.916;2022-12-16T02:04:45;99123.69;;;-4.41;80.67
76753;BME280;65687;51.308;16.916;2022-12-16T02:10:06;99118.44;;;-4.42;80.81
76753;BME280;65687;51.308;16.916;2022-12-16T02:31:29;99108.71;;;-4.55;80.86
76753;BME280;65687;51.308;16.916;2022-12-16T02:47:05;99106.10;;;-4.70;81.07
76753;BME280;65687;51.308;16.916;2022-12-16T02:52:07;99099.95;;;-4.72;81.07
76753;BME280;65687;51.308;16.916;2022-12-16T02:57:22;99089.02;;;-4.65;81.19
76753;BME280;65687;51.308;16.916;2022-12-16T03:08:04;99078.88;;;-4.56;80.96
76753;BME280;65687;51.308;16.916;2022-12-16T03:13:09;99065.60;;;-4.52;80.92
76753;BME280;65687;51.308;16.916;2022-12-16T03:18:12;99065.70;;;-4.52;80.89
76753;BME280;65687;51.308;16.916;2022-12-16T03:23:18;99065.03;;;-4.55;80.86
76753;BME280;65687;51.308;16.916;2022-12-16T03:28:47;99065.48;;;-4.57;81.06
76753;BME280;65687;51.308;16.916;2022-12-16T03:39:41;99054.77;;;-4.70;81.24
76753;BME280;65687;51.308;16.916;2022-12-16T03:44:45;99048.33;;;-4.65;81.27
76753;BME280;65687;51.308;16.916;2022-12-16T03:49:48;99047.70;;;-4.56;80.99
76753;BME280;65687;51.308;16.916;2022-12-16T03:54:50;99055.11;;;-4.54;80.87
76753;BME280;65687;51.308;16.916;2022-12-16T03:59:52;99055.40;;;-4.56;80.93
76753;BME280;65687;51.308;16.916;2022-12-16T04:04:54;99050.77;;;-4.62;81.14
76753;BME280;65687;51.308;16.916;2022-12-16T04:09:55;99064.55;;;-4.68;81.15
76753;BME280;65687;51.308;16.916;2022-12-16T04:14:57;99064.79;;;-4.74;81.24
76753;BME280;65687;51.308;16.916;2022-12-16T04:20:18;99070.23;;;-4.77;81.25
76753;BME280;65687;51.308;16.916;2022-12-16T04:25:39;99068.77;;;-4.84;81.43
76753;BME280;65687;51.308;16.916;2022-12-16T04:30:41;99070.66;;;-4.83;81.36
76753;BME280;65687;51.308;16.916;2022-12-16T04:35:43;99070.63;;;-4.69;81.28
76753;BME280;65687;51.308;16.916;2022-12-16T04:41:04;99070.02;;;-4.56;81.11
76753;BME280;65687;51.308;16.916;2022-12-16T04:46:24;99071.81;;;-4.51;81.11
76753;BME280;65687;51.308;16.916;2022-12-16T04:51:45;99079.19;;;-4.53;81.02
76753;BME280;65687;51.308;16.916;2022-12-16T04:57:06;99068.70;;;-4.58;80.88
76753;BME280;65687;51.308;16.916;2022-12-16T05:02:27;99076.11;;;-4.64;81.06
76753;BME280;65687;51.308;16.916;2022-12-16T05:07:47;99078.75;;;-4.69;81.13
76753;BME280;65687;51.308;16.916;2022-12-16T05:13:08;99082.95;;;-4.77;81.45
76753;BME280;65687;51.308;16.916;2022-12-16T05:18:29;99080.58;;;-4.81;81.59
76753;BME280;65687;51.308;16.916;2022-12-16T05:24:04;99071.25;;;-4.74;81.21
76753;BME280;65687;51.308;16.916;2022-12-16T05:29:24;99072.14;;;-4.71;81.24
76753;BME280;65687;51.308;16.916;2022-12-16T05:34:44;99074.65;;;-4.69;81.24
76753;BME280;65687;51.308;16.916;2022-12-16T05:40:06;99066.34;;;-4.74;81.27
76753;BME280;65687;51.308;16.916;2022-12-16T05:45:26;99068.20;;;-4.79;81.36
76753;BME280;65687;51.308;16.916;2022-12-16T05:50:47;99077.86;;;-4.74;81.20
76753;BME280;65687;51.308;16.916;2022-12-16T05:56:07;99066.02;;;-4.72;81.26
76753;BME280;65687;51.308;16.916;2022-12-16T06:01:28;99053.13;;;-4.80;81.42
76753;BME280;65687;51.308;16.916;2022-12-16T06:07:08;99050.95;;;-4.89;81.78
76753;BME280;65687;51.308;16.916;2022-12-16T06:12:28;99056.46;;;-4.88;81.64
76753;BME280;65687;51.308;16.916;2022-12-16T06:17:49;99058.73;;;-4.89;81.52
76753;BME280;65687;51.308;16.916;2022-12-16T06:23:10;99059.02;;;-4.93;81.63
76753;BME280;65687;51.308;16.916;2022-12-16T06:28:30;99069.10;;;-4.99;81.55
76753;BME280;65687;51.308;16.916;2022-12-16T06:33:51;99074.91;;;-4.96;81.67
76753;BME280;65687;51.308;16.916;2022-12-16T06:39:11;99078.85;;;-4.85;81.71
76753;BME280;65687;51.308;16.916;2022-12-16T06:44:32;99078.15;;;-4.80;81.58
76753;BME280;65687;51.308;16.916;2022-12-16T06:49:52;99069.25;;;-4.86;81.21
76753;BME280;65687;51.308;16.916;2022-12-16T06:55:12;99074.96;;;-4.91;81.49
76753;BME280;65687;51.308;16.916;2022-12-16T07:00:33;99076.14;;;-4.87;81.57
76753;BME280;65687;51.308;16.916;2022-12-16T07:05:54;99067.88;;;-4.86;81.53
76753;BME280;65687;51.308;16.916;2022-12-16T07:11:15;99075.45;;;-4.89;81.74
76753;BME280;65687;51.308;16.916;2022-12-16T07:16:36;99068.36;;;-4.94;81.39
76753;BME280;65687;51.308;16.916;2022-12-16T07:21:56;99066.17;;;-4.94;81.41
76753;BME280;65687;51.308;16.916;2022-12-16T07:27:17;99065.23;;;-4.89;81.28
76753;BME280;65687;51.308;16.916;2022-12-16T07:32:37;99071.64;;;-4.90;81.35
76753;BME280;65687;51.308;16.916;2022-12-16T07:37:57;99086.36;;;-4.89;81.44
76753;BME280;65687;51.308;16.916;2022-12-16T07:43:17;99091.66;;;-4.84;81.09
76753;BME280;65687;51.308;16.916;2022-12-16T07:48:38;99095.30;;;-4.84;80.75
76753;BME280;65687;51.308;16.916;2022-12-16T07:53:58;99098.92;;;-4.83;80.95
76753;BME280;65687;51.308;16.916;2022-12-16T07:59:18;99107.54;;;-4.77;80.59
76753;BME280;65687;51.308;16.916;2022-12-16T08:04:39;99118.37;;;-4.65;80.30
76753;BME280;65687;51.308;16.916;2022-12-16T08:09:59;99112.30;;;-4.61;80.20
76753;BME280;65687;51.308;16.916;2022-12-16T08:15:20;99118.91;;;-4.60;80.17
76753;BME280;65687;51.308;16.916;2022-12-16T08:20:40;99104.09;;;-4.60;80.40
76753;BME280;65687;51.308;16.916;2022-12-16T08:26:00;99091.97;;;-4.52;80.35
76753;BME280;65687;51.308;16.916;2022-12-16T08:31:21;99099.42;;;-4.47;80.31
76753;BME280;65687;51.308;16.916;2022-12-16T08:36:41;99116.94;;;-4.48;80.55
76753;BME280;65687;51.308;16.916;2022-12-16T08:42:02;99117.98;;;-4.49;80.34
76753;BME280;65687;51.308;16.916;2022-12-16T08:47:22;99126.86;;;-4.51;80.36
76753;BME280;65687;51.308;16.916;2022-12-16T08:52:47;99126.61;;;-4.43;80.32
76753;BME280;65687;51.308;16.916;2022-12-16T08:58:07;99140.19;;;-4.36;80.23
76753;BME280;65687;51.308;16.916;2022-12-16T09:03:28;99145.70;;;-4.29;80.36
76753;BME280;65687;51.308;16.916;2022-12-16T09:08:49;99137.23;;;-4.29;80.30
76753;BME280;65687;51.308;16.916;2022-12-16T09:14:09;99147.17;;;-4.33;80.36
76753;BME280;65687;51.308;16.916;2022-12-16T09:19:30;99157.27;;;-4.33;80.32
76753;BME280;65687;51.308;16.916;2022-12-16T09:24:51;99176.38;;;-4.24;80.53
76753;BME280;65687;51.308;16.916;2022-12-16T09:30:12;99169.41;;;-4.21;80.14
76753;BME280;65687;51.308;16.916;2022-12-16T09:35:32;99164.71;;;-4.23;80.40
76753;BME280;65687;51.308;16.916;2022-12-16T09:40:53;99172.27;;;-4.23;80.52
76753;BME280;65687;51.308;16.916;2022-12-16T09:51:41;99187.86;;;-4.09;80.74
76753;BME280;65687;51.308;16.916;2022-12-16T09:57:05;99193.14;;;-4.08;80.61
76753;BME280;65687;51.308;16.916;2022-12-16T10:02:26;99183.21;;;-4.13;80.94
76753;BME280;65687;51.308;16.916;2022-12-16T10:08:17;99181.95;;;-4.13;81.09
76753;BME280;65687;51.308;16.916;2022-12-16T10:13:53;99172.29;;;-4.06;81.56
76753;BME280;65687;51.308;16.916;2022-12-16T10:25:34;99171.98;;;-3.89;81.52
76753;BME280;65687;51.308;16.916;2022-12-16T10:31:00;99167.92;;;-3.91;81.60
76753;BME280;65687;51.308;16.916;2022-12-16T10:36:22;99170.20;;;-4.01;81.29
76753;BME280;65687;51.308;16.916;2022-12-16T10:41:47;99165.48;;;-3.97;81.32
76753;BME280;65687;51.308;16.916;2022-12-16T10:47:10;99167.48;;;-4.00;81.55
76753;BME280;65687;51.308;16.916;2022-12-16T10:52:31;99166.52;;;-4.04;81.58
76753;BME280;65687;51.308;16.916;2022-12-16T10:58:03;99170.77;;;-4.08;81.47
76753;BME280;65687;51.308;16.916;2022-12-16T11:03:31;99182.96;;;-4.01;81.55
76753;BME280;65687;51.308;16.916;2022-12-16T11:08:51;99197.23;;;-3.99;81.52
76753;BME280;65687;51.308;16.916;2022-12-16T11:19:35;99199.66;;;-3.92;81.88
76753;BME280;65687;51.308;16.916;2022-12-16T11:30:32;99184.88;;;-3.84;81.61
76753;BME280;65687;51.308;16.916;2022-12-16T11:36:04;99178.54;;;-3.77;81.69
76753;BME280;65687;51.308;16.916;2022-12-16T11:41:32;99182.17;;;-3.71;81.70
76753;BME280;65687;51.308;16.916;2022-12-16T11:46:53;99187.56;;;-3.70;81.92
76753;BME280;65687;51.308;16.916;2022-12-16T11:52:19;99192.84;;;-3.67;82.05
76753;BME280;65687;51.308;16.916;2022-12-16T11:58:04;99177.31;;;-3.64;82.11
76753;BME280;65687;51.308;16.916;2022-12-16T12:03:33;99179.77;;;-3.66;82.46
76753;BME280;65687;51.308;16.916;2022-12-16T12:09:06;99177.77;;;-3.69;82.43
76753;BME280;65687;51.308;16.916;2022-12-16T12:20:18;99191.58;;;-3.67;83.00
76753;BME280;65687;51.308;16.916;2022-12-16T12:37:05;99215.84;;;-3.62;82.70
76753;BME280;65687;51.308;16.916;2022-12-16T12:42:35;99227.51;;;-3.63;82.91
76753;BME280;65687;51.308;16.916;2022-12-16T12:48:12;99231.11;;;-3.61;82.80
76753;BME280;65687;51.308;16.916;2022-12-16T12:53:52;99218.70;;;-3.63;83.03
76753;BME280;65687;51.308;16.916;2022-12-16T12:59:32;99226.27;;;-3.66;83.04
76753;BME280;65687;51.308;16.916;2022-12-16T13:04:56;99233.27;;;-3.66;83.06
76753;BME280;65687;51.308;16.916;2022-12-16T13:15:44;99231.38;;;-3.74;83.24
76753;BME280;65687;51.308;16.916;2022-12-16T13:27:00;99246.30;;;-3.70;83.09
76753;BME280;65687;51.308;16.916;2022-12-16T13:32:22;99251.88;;;-3.69;83.25
76753;BME280;65687;51.308;16.916;2022-12-16T13:37:51;99251.95;;;-3.68;83.25
76753;BME280;65687;51.308;16.916;2022-12-16T13:49:59;99255.76;;;-3.61;83.21
76753;BME280;65687;51.308;16.916;2022-12-16T13:55:30;99256.99;;;-3.60;83.30
76753;BME280;65687;51.308;16.916;2022-12-16T14:01:04;99269.83;;;-3.65;83.39
76753;BME280;65687;51.308;16.916;2022-12-16T14:06:26;99285.02;;;-3.62;83.67
76753;BME280;65687;51.308;16.916;2022-12-16T14:11:56;99297.09;;;-3.57;83.53
76753;BME280;65687;51.308;16.916;2022-12-16T14:17:29;99302.34;;;-3.62;83.42
76753;BME280;65687;51.308;16.916;2022-12-16T14:23:29;99299.94;;;-3.69;83.57
76753;BME280;65687;51.308;16.916;2022-12-16T14:28:53;99309.41;;;-3.65;83.57
76753;BME280;65687;51.308;16.916;2022-12-16T14:34:14;99323.73;;;-3.62;83.76
76753;BME280;65687;51.308;16.916;2022-12-16T14:39:38;99330.67;;;-3.62;83.81
76753;BME280;65687;51.308;16.916;2022-12-16T14:44:58;99341.52;;;-3.63;83.88
76753;BME280;65687;51.308;16.916;2022-12-16T14:50:21;99348.68;;;-3.55;83.92
76753;BME280;65687;51.308;16.916;2022-12-16T14:55:41;99351.43;;;-3.48;83.81
76753;BME280;65687;51.308;16.916;2022-12-16T15:01:13;99354.07;;;-3.49;83.78
76753;BME280;65687;51.308;16.916;2022-12-16T15:06:38;99374.13;;;-3.52;83.97
76753;BME280;65687;51.308;16.916;2022-12-16T15:12:02;99373.02;;;-3.51;83.83
76753;BME280;65687;51.308;16.916;2022-12-16T15:17:26;99379.67;;;-3.46;83.87
76753;BME280;65687;51.308;16.916;2022-12-16T15:22:49;99391.17;;;-3.45;83.91
76753;BME280;65687;51.308;16.916;2022-12-16T15:28:37;99390.84;;;-3.48;84.03
76753;BME280;65687;51.308;16.916;2022-12-16T15:34:32;99393.24;;;-3.49;84.13
76753;BME280;65687;51.308;16.916;2022-12-16T15:39:56;99403.52;;;-3.46;84.30
76753;BME280;65687;51.308;16.916;2022-12-16T15:50:51;99419.64;;;-3.52;84.35
76753;BME280;65687;51.308;16.916;2022-12-16T16:01:27;99425.70;;;-3.37;84.43
76753;BME280;65687;51.308;16.916;2022-12-16T16:07:37;99446.27;;;-3.40;84.32
76753;BME280;65687;51.308;16.916;2022-12-16T16:13:01;99454.18;;;-3.47;84.41
76753;BME280;65687;51.308;16.916;2022-12-16T16:18:24;99453.88;;;-3.39;84.38
76753;BME280;65687;51.308;16.916;2022-12-16T16:23:59;99463.38;;;-3.34;84.16
76753;BME280;65687;51.308;16.916;2022-12-16T16:29:21;99471.60;;;-3.42;84.29
76753;BME280;65687;51.308;16.916;2022-12-16T16:34:44;99466.85;;;-3.46;84.44
76753;BME280;65687;51.308;16.916;2022-12-16T16:45:55;99474.84;;;-3.44;84.34
76753;BME280;65687;51.308;16.916;2022-12-16T16:51:18;99491.23;;;-3.43;84.38
76753;BME280;65687;51.308;16.916;2022-12-16T16:56:41;99504.60;;;-3.48;84.41
76753;BME280;65687;51.308;16.916;2022-12-16T17:02:18;99518.00;;;-3.45;84.24
76753;BME280;65687;51.308;16.916;2022-12-16T17:07:41;99524.52;;;-3.50;84.30
76753;BME280;65687;51.308;16.916;2022-12-16T17:13:16;99539.52;;;-3.53;84.51
76753;BME280;65687;51.308;16.916;2022-12-16T17:18:50;99540.81;;;-3.58;84.54
76753;BME280;65687;51.308;16.916;2022-12-16T17:24:17;99545.14;;;-3.53;84.53
76753;BME280;65687;51.308;16.916;2022-12-16T17:29:42;99539.27;;;-3.49;84.13
76753;BME280;65687;51.308;16.916;2022-12-16T17:35:12;99543.02;;;-3.52;84.15
76753;BME280;65687;51.308;16.916;2022-12-16T17:40:35;99558.16;;;-3.56;84.12
76753;BME280;65687;51.308;16.916;2022-12-16T17:46:10;99569.48;;;-3.61;84.04
76753;BME280;65687;51.308;16.916;2022-12-16T17:51:36;99571.33;;;-3.56;84.15
76753;BME280;65687;51.308;16.916;2022-12-16T17:57:01;99572.95;;;-3.57;84.21
76753;BME280;65687;51.308;16.916;2022-12-16T18:02:23;99588.41;;;-3.61;84.44
76753;BME280;65687;51.308;16.916;2022-12-16T18:07:45;99588.56;;;-3.66;84.63
76753;BME280;65687;51.308;16.916;2022-12-16T18:13:06;99578.55;;;-3.68;84.70
76753;BME280;65687;51.308;16.916;2022-12-16T18:18:34;99573.91;;;-3.71;84.79
76753;BME280;65687;51.308;16.916;2022-12-16T18:23:55;99581.24;;;-3.75;84.84
76753;BME280;65687;51.308;16.916;2022-12-16T18:29:17;99587.53;;;-3.72;84.60
76753;BME280;65687;51.308;16.916;2022-12-16T18:34:39;99588.55;;;-3.66;84.58
76753;BME280;65687;51.308;16.916;2022-12-16T18:40:04;99595.59;;;-3.69;84.33
76753;BME280;65687;51.308;16.916;2022-12-16T18:45:28;99599.10;;;-3.76;84.28
76753;BME280;65687;51.308;16.916;2022-12-16T18:50:54;99599.77;;;-3.81;84.43
76753;BME280;65687;51.308;16.916;2022-12-16T18:56:15;99605.35;;;-3.87;84.48
76753;BME280;65687;51.308;16.916;2022-12-16T19:01:38;99603.48;;;-3.89;84.26
76753;BME280;65687;51.308;16.916;2022-12-16T19:07:00;99603.17;;;-3.82;84.05
76753;BME280;65687;51.308;16.916;2022-12-16T19:12:22;99611.32;;;-3.86;84.01
76753;BME280;65687;51.308;16.916;2022-12-16T19:17:43;99618.52;;;-3.89;83.92
76753;BME280;65687;51.308;16.916;2022-12-16T19:23:05;99617.54;;;-3.96;84.13
76753;BME280;65687;51.308;16.916;2022-12-16T19:28:27;99624.52;;;-3.97;84.02
76753;BME280;65687;51.308;16.916;2022-12-16T19:33:53;99636.03;;;-3.92;84.03
76753;BME280;65687;51.308;16.916;2022-12-16T19:39:15;99646.99;;;-3.97;83.86
76753;BME280;65687;51.308;16.916;2022-12-16T19:44:37;99659.84;;;-4.02;84.07
76753;BME280;65687;51.308;16.916;2022-12-16T19:49:58;99669.29;;;-4.09;84.08
76753;BME280;65687;51.308;16.916;2022-12-16T19:55:20;99677.63;;;-4.09;84.14
76753;BME280;65687;51.308;16.916;2022-12-16T20:00:43;99684.39;;;-4.07;84.02
76753;BME280;65687;51.308;16.916;2022-12-16T20:06:07;99685.95;;;-4.07;83.83
76753;BME280;65687;51.308;16.916;2022-12-16T20:11:29;99696.95;;;-4.15;83.97
76753;BME280;65687;51.308;16.916;2022-12-16T20:16:51;99705.38;;;-4.17;83.86
76753;BME280;65687;51.308;16.916;2022-12-16T20:22:14;99709.95;;;-4.16;83.77
76753;BME280;65687;51.308;16.916;2022-12-16T20:27:37;99720.81;;;-4.11;83.64
76753;BME280;65687;51.308;16.916;2022-12-16T20:32:59;99723.38;;;-4.17;83.76
76753;BME280;65687;51.308;16.916;2022-12-16T20:38:20;99722.09;;;-4.31;83.70
76753;BME280;65687;51.308;16.916;2022-12-16T20:43:42;99714.91;;;-4.40;83.94
76753;BME280;65687;51.308;16.916;2022-12-16T20:49:04;99719.17;;;-4.48;83.61
76753;BME280;65687;51.308;16.916;2022-12-16T20:54:27;99726.46;;;-4.46;83.47
76753;BME280;65687;51.308;16.916;2022-12-16T20:59:48;99734.27;;;-4.42;83.60
76753;BME280;65687;51.308;16.916;2022-12-16T21:05:10;99747.52;;;-4.43;83.52
76753;BME280;65687;51.308;16.916;2022-12-16T21:10:31;99761.91;;;-4.49;83.55
76753;BME280;65687;51.308;16.916;2022-12-16T21:15:52;99762.78;;;-4.58;83.59
76753;BME280;65687;51.308;16.916;2022-12-16T21:21:12;99767.02;;;-4.62;83.50
76753;BME280;65687;51.308;16.916;2022-12-16T21:26:33;99774.22;;;-4.62;83.25
76753;BME280;65687;51.308;16.916;2022-12-16T21:31:53;99776.47;;;-4.65;83.17
76753;BME280;65687;51.308;16.916;2022-12-16T21:37:14;99778.62;;;-4.72;83.36
76753;BME280;65687;51.308;16.916;2022-12-16T21:42:34;99782.00;;;-4.73;83.30
76753;BME280;65687;51.308;16.916;2022-12-16T21:47:54;99786.07;;;-4.76;83.32
76753;BME280;65687;51.308;16.916;2022-12-16T21:53:17;99802.34;;;-4.67;83.53
76753;BME280;65687;51.308;16.916;2022-12-16T21:58:37;99807.31;;;-4.62;83.35
76753;BME280;65687;51.308;16.916;2022-12-16T22:03:57;99812.08;;;-4.62;83.38
76753;BME280;65687;51.308;16.916;2022-12-16T22:09:18;99822.53;;;-4.66;83.35
76753;BME280;65687;51.308;16.916;2022-12-16T22:14:38;99830.70;;;-4.66;83.30
76753;BME280;65687;51.308;16.916;2022-12-16T22:19:59;99824.98;;;-4.55;83.27
76753;BME280;65687;51.308;16.916;2022-12-16T22:25:19;99821.41;;;-4.57;82.78
76753;BME280;65687;51.308;16.916;2022-12-16T22:30:39;99833.83;;;-4.67;82.90
76753;BME280;65687;51.308;16.916;2022-12-16T22:36:14;99834.73;;;-4.71;83.06
76753;BME280;65687;51.308;16.916;2022-12-16T22:41:34;99840.14;;;-4.77;82.96
76753;BME280;65687;51.308;16.916;2022-12-16T22:46:55;99843.99;;;-4.77;83.00
76753;BME280;65687;51.308;16.916;2022-12-16T22:52:16;99845.78;;;-4.69;82.92
76753;BME280;65687;51.308;16.916;2022-12-16T22:57:36;99854.00;;;-4.71;82.83
76753;BME280;65687;51.308;16.916;2022-12-16T23:02:56;99855.34;;;-4.79;83.06
76753;BME280;65687;51.308;16.916;2022-12-16T23:08:17;99855.01;;;-4.73;83.18
76753;BME280;65687;51.308;16.916;2022-12-16T23:13:37;99861.16;;;-4.79;82.99
76753;BME280;65687;51.308;16.916;2022-12-16T23:18:57;99867.69;;;-4.72;82.95
76753;BME280;65687;51.308;16.916;2022-12-16T23:24:18;99867.52;;;-4.63;82.87
76753;BME280;65687;51.308;16.916;2022-12-16T23:29:38;99871.28;;;-4.66;82.59
76753;BME280;65687;51.308;16.916;2022-12-16T23:34:58;99883.56;;;-4.70;82.75
76753;BME280;65687;51.308;16.916;2022-12-16T23:40:19;99888.00;;;-4.73;82.91
76753;BME280;65687;51.308;16.916;2022-12-16T23:45:42;99897.77;;;-4.73;82.88
76753;BME280;65687;51.308;16.916;2022-12-16T23:51:02;99911.05;;;-4.76;83.35
76753;BME280;65687;51.308;16.916;2022-12-16T23:56:23;99915.86;;;-4.78;83.20
